createdAt,value
2023-02-03T00:01:47.147Z,98560.88
2023-02-03T00:04:13.853Z,98568.75
2023-02-03T00:06:40.698Z,98567.19
2023-02-03T00:09:07.333Z,98571.47
2023-02-03T00:11:33.898Z,98572.59
2023-02-03T00:14:00.356Z,98565.59
2023-02-03T00:16:26.935Z,98557.91
2023-02-03T00:18:53.483Z,98564.28
2023-02-03T00:21:20.310Z,98570.56
2023-02-03T00:23:46.695Z,98571.28
2023-02-03T00:26:15.574Z,98582.56
2023-02-03T00:28:42.859Z,98568.41
2023-02-03T00:31:16.988Z,98565.00
2023-02-03T00:33:43.823Z,98573.81
2023-02-03T00:36:11.202Z,98571.53
2023-02-03T00:38:37.978Z,98579.25
2023-02-03T00:41:04.547Z,98570.75
2023-02-03T00:43:31.138Z,98570.69
2023-02-03T00:45:57.660Z,98569.53
2023-02-03T00:48:26.370Z,98560.63
2023-02-03T00:50:53.233Z,98566.03
2023-02-03T00:53:19.739Z,98577.75
2023-02-03T00:55:46.188Z,98568.41
2023-02-03T00:58:12.535Z,98573.81
2023-02-03T01:00:39.113Z,98572.00
2023-02-03T01:03:05.712Z,98577.75
2023-02-03T01:05:32.286Z,98585.38
2023-02-03T01:07:58.874Z,98577.75
2023-02-03T01:10:25.695Z,98580.38
2023-02-03T01:12:52.261Z,98577.75
2023-02-03T01:15:18.782Z,98570.84
2023-02-03T01:17:45.231Z,98574.00
2023-02-03T01:20:13.697Z,98571.13
2023-02-03T01:22:40.555Z,98576.97
2023-02-03T01:25:07.387Z,98575.41
2023-02-03T01:27:34.116Z,98562.19
2023-02-03T01:30:00.435Z,98561.84
2023-02-03T01:32:27.559Z,98565.69
2023-02-03T01:34:53.939Z,98554.41
2023-02-03T01:37:20.407Z,98548.97
2023-02-03T01:39:46.928Z,98561.16
2023-02-03T01:42:14.644Z,98553.88
2023-02-03T01:44:43.133Z,98563.88
2023-02-03T01:47:27.287Z,98553.34
2023-02-03T01:50:11.761Z,98557.72
2023-02-03T01:52:41.145Z,98541.44
2023-02-03T01:55:13.274Z,98536.88
2023-02-03T01:57:57.380Z,98542.41
2023-02-03T02:00:24.423Z,98537.59
2023-02-03T02:02:52.343Z,98537.59
2023-02-03T02:05:27.325Z,98545.47
2023-02-03T02:07:56.537Z,98540.84
2023-02-03T02:10:22.937Z,98544.66
2023-02-03T02:12:49.923Z,98548.19
2023-02-03T02:15:16.493Z,98551.69
2023-02-03T02:18:19.456Z,98546.75
2023-02-03T02:21:00.706Z,98547.19
2023-02-03T02:23:55.428Z,98536.34
2023-02-03T02:26:37.083Z,98531.69
2023-02-03T02:29:13.073Z,98536.44
2023-02-03T02:31:48.264Z,98520.22
2023-02-03T02:34:22.756Z,98521.00
2023-02-03T02:37:00.391Z,98550.06
2023-02-03T02:40:03.482Z,98521.97
2023-02-03T02:42:44.184Z,98522.22
2023-02-03T02:45:14.648Z,98510.03
2023-02-03T02:47:41.648Z,98509.53
2023-02-03T02:50:22.896Z,98504.97
2023-02-03T02:52:51.529Z,98501.88
2023-02-03T02:55:27.962Z,98502.09
2023-02-03T02:57:58.015Z,98492.91
2023-02-03T03:00:25.060Z,98497.53
2023-02-03T03:02:51.605Z,98485.47
2023-02-03T03:05:19.016Z,98487.72
2023-02-03T03:07:51.551Z,98495.44
2023-02-03T03:10:24.788Z,98482.31
2023-02-03T03:12:57.601Z,98503.22
2023-02-03T03:15:28.332Z,98482.31
2023-02-03T03:17:57.780Z,98495.50
2023-02-03T03:20:27.489Z,98505.69
2023-02-03T03:23:01.376Z,98510.38
2023-02-03T03:25:39.570Z,98504.19
2023-02-03T03:28:13.946Z,98498.38
2023-02-03T03:30:40.824Z,98499.28
2023-02-03T03:33:09.034Z,98506.53
2023-02-03T03:35:49.128Z,98496.81
2023-02-03T03:38:24.687Z,98491.81
2023-02-03T03:40:58.779Z,98504.25
2023-02-03T03:43:30.224Z,98512.84
2023-02-03T03:46:22.868Z,98522.88
2023-02-03T03:49:03.328Z,98533.69
2023-02-03T03:51:44.961Z,98531.31
2023-02-03T03:54:17.012Z,98536.75
2023-02-03T03:57:15.515Z,98536.69
2023-02-03T03:59:47.764Z,98531.31
2023-02-03T04:02:16.316Z,98531.91
2023-02-03T04:04:45.427Z,98527.41
2023-02-03T04:07:15.022Z,98543.56
2023-02-03T04:09:43.102Z,98528.09
2023-02-03T04:12:22.001Z,98526.44
2023-02-03T04:14:48.446Z,98533.59
2023-02-03T04:17:14.893Z,98556.03
2023-02-03T04:19:41.267Z,98557.50
2023-02-03T04:22:07.781Z,98549.00
2023-02-03T04:24:34.317Z,98550.44
2023-02-03T04:27:00.858Z,98543.78
2023-02-03T04:29:27.413Z,98544.47
2023-02-03T04:31:54.011Z,98540.38
2023-02-03T04:34:20.591Z,98551.28
2023-02-03T04:36:47.141Z,98538.38
2023-02-03T04:39:13.686Z,98525.91
2023-02-03T04:41:40.328Z,98516.22
2023-02-03T04:44:06.815Z,98527.06
2023-02-03T04:46:33.406Z,98532.66
2023-02-03T04:48:59.912Z,98533.88
2023-02-03T04:51:26.504Z,98537.81
2023-02-03T04:53:53.018Z,98522.66
2023-02-03T04:56:19.565Z,98526.50
2023-02-03T04:58:46.165Z,98523.69
2023-02-03T05:01:12.903Z,98515.66
2023-02-03T05:03:39.546Z,98510.31
2023-02-03T05:06:06.179Z,98522.66
2023-02-03T05:08:33.628Z,98511.91
2023-02-03T05:11:02.011Z,98505.69
2023-02-03T05:13:29.020Z,98497.44
2023-02-03T05:15:55.386Z,98504.81
2023-02-03T05:18:21.711Z,98495.50
2023-02-03T05:20:48.088Z,98491.34
2023-02-03T05:23:14.806Z,98485.13
2023-02-03T05:25:43.732Z,98492.53
2023-02-03T05:28:10.365Z,98504.72
2023-02-03T05:30:38.088Z,98492.47
2023-02-03T05:33:04.544Z,98492.03
2023-02-03T05:35:31.439Z,98490.91
2023-02-03T05:37:59.523Z,98498.59
2023-02-03T05:40:45.368Z,98495.97
2023-02-03T05:43:12.529Z,98488.53
2023-02-03T05:45:39.485Z,98501.75
2023-02-03T05:48:07.542Z,98488.53
2023-02-03T05:50:37.459Z,98493.94
2023-02-03T05:53:05.981Z,98485.31
2023-02-03T05:55:33.507Z,98484.59
2023-02-03T05:58:01.237Z,98492.31
2023-02-03T06:00:29.076Z,98499.94
2023-02-03T06:02:58.006Z,98508.53
2023-02-03T06:05:25.561Z,98500.03
2023-02-03T06:07:52.220Z,98505.03
2023-02-03T06:10:18.861Z,98496.16
2023-02-03T06:12:45.278Z,98504.81
2023-02-03T06:15:11.793Z,98508.75
2023-02-03T06:17:38.578Z,98511.81
2023-02-03T06:20:09.607Z,98510.69
2023-02-03T06:22:36.133Z,98509.09
2023-02-03T06:25:02.679Z,98504.53
2023-02-03T06:27:29.175Z,98506.22
2023-02-03T06:29:55.556Z,98515.53
2023-02-03T06:32:22.077Z,98503.94
2023-02-03T06:34:48.727Z,98511.25
2023-02-03T06:37:15.179Z,98496.06
2023-02-03T06:39:41.876Z,98488.22
2023-02-03T06:42:08.433Z,98491.34
2023-02-03T06:44:34.957Z,98495.22
2023-02-03T06:47:03.133Z,98483.66
2023-02-03T06:49:30.188Z,98464.38
2023-02-03T06:51:57.160Z,98453.13
2023-02-03T06:54:23.751Z,98450.53
2023-02-03T06:56:50.295Z,98445.81
2023-02-03T06:59:16.645Z,98449.75
2023-02-03T07:01:43.532Z,98453.69
2023-02-03T07:04:10.441Z,98452.97
2023-02-03T07:06:37.063Z,98484.75
2023-02-03T07:09:05.612Z,98474.75
2023-02-03T07:11:32.585Z,98488.75
2023-02-03T07:13:59.455Z,98487.19
2023-02-03T07:16:27.437Z,98478.66
2023-02-03T07:18:54.010Z,98479.97
2023-02-03T07:21:20.376Z,98468.97
2023-02-03T07:23:48.478Z,98462.38
2023-02-03T07:26:15.079Z,98446.81
2023-02-03T07:28:41.720Z,98435.19
2023-02-03T07:31:10.584Z,98455.53
2023-02-03T07:33:38.351Z,98492.91
2023-02-03T07:36:05.862Z,98461.28
2023-02-03T07:38:32.448Z,98455.25
2023-02-03T07:40:59.013Z,98460.81
2023-02-03T07:43:25.846Z,98460.25
2023-02-03T07:45:52.280Z,98480.84
2023-02-03T07:48:18.894Z,98478.66
2023-02-03T07:50:45.894Z,98493.84
2023-02-03T07:53:12.414Z,98493.38
2023-02-03T07:55:39.780Z,98496.19
2023-02-03T07:58:06.387Z,98475.63
2023-02-03T08:00:33.215Z,98473.69
2023-02-03T08:02:59.795Z,98475.19
2023-02-03T08:05:26.519Z,98494.63
2023-02-03T08:07:53.019Z,98498.13
2023-02-03T08:10:19.639Z,98501.34
2023-02-03T08:12:47.162Z,98507.41
2023-02-03T08:15:14.505Z,98503.69
2023-02-03T08:17:42.169Z,98486.56
2023-02-03T08:20:09.921Z,98489.63
2023-02-03T08:22:36.505Z,98491.91
2023-02-03T08:25:04.023Z,98506.69
2023-02-03T08:27:31.762Z,98483.41
2023-02-03T08:29:58.869Z,98506.34
2023-02-03T08:32:26.099Z,98517.47
2023-02-03T08:34:53.100Z,98509.69
2023-02-03T08:37:24.450Z,98483.41
2023-02-03T08:39:52.111Z,98483.84
2023-02-03T08:42:19.497Z,98484.63
2023-02-03T08:44:46.060Z,98489.53
2023-02-03T08:47:13.105Z,98480.28
2023-02-03T08:49:39.952Z,98476.53
2023-02-03T08:52:08.213Z,98462.31
2023-02-03T08:54:35.097Z,98477.66
2023-02-03T08:57:01.693Z,98480.06
2023-02-03T08:59:29.336Z,98479.31
2023-02-03T09:01:55.909Z,98499.38
2023-02-03T09:04:25.916Z,98493.25
2023-02-03T09:06:56.319Z,98492.81
2023-02-03T09:09:24.220Z,98501.66
2023-02-03T09:11:50.712Z,98501.16
2023-02-03T09:14:17.105Z,98490.81
2023-02-03T09:16:43.702Z,98516.72
2023-02-03T09:19:10.358Z,98521.09
2023-02-03T09:21:41.992Z,98504.97
2023-02-03T09:24:15.736Z,98500.25
2023-02-03T09:26:42.398Z,98485.53
2023-02-03T09:29:09.030Z,98495.06
2023-02-03T09:31:36.150Z,98505.81
2023-02-03T09:34:02.955Z,98496.63
2023-02-03T09:36:29.477Z,98515.81
2023-02-03T09:38:57.990Z,98494.09
2023-02-03T09:41:49.294Z,98488.06
2023-02-03T09:44:49.596Z,98492.25
2023-02-03T09:47:21.240Z,98502.78
2023-02-03T09:50:12.963Z,98492.53
2023-02-03T09:52:41.778Z,98491.13
2023-02-03T09:55:34.028Z,98485.81
2023-02-03T09:58:10.196Z,98500.53
2023-02-03T10:00:42.890Z,98485.56
2023-02-03T10:03:27.553Z,98480.97
2023-02-03T10:05:53.887Z,98490.69
2023-02-03T10:08:45.215Z,98488.28
2023-02-03T10:11:29.905Z,98469.19
2023-02-03T10:14:12.672Z,98462.25
2023-02-03T10:16:54.315Z,98457.69
2023-02-03T10:19:28.240Z,98469.59
2023-02-03T10:21:59.085Z,98475.97
2023-02-03T10:24:37.679Z,98480.97
2023-02-03T10:27:04.570Z,98482.69
2023-02-03T10:29:37.775Z,98483.69
2023-02-03T10:32:09.670Z,98484.09
2023-02-03T10:34:37.233Z,98482.22
2023-02-03T10:37:13.835Z,98498.25
2023-02-03T10:39:46.642Z,98495.38
2023-02-03T10:42:13.947Z,98480.19
2023-02-03T10:44:44.955Z,98469.09
2023-02-03T10:47:45.663Z,98451.31
2023-02-03T10:50:31.710Z,98451.31
2023-02-03T10:53:34.127Z,98470.75
2023-02-03T10:56:08.969Z,98453.44
2023-02-03T10:58:38.014Z,98457.19
2023-02-03T11:01:16.992Z,98447.00
2023-02-03T11:03:54.041Z,98433.44
2023-02-03T11:06:20.694Z,98441.31
2023-02-03T11:08:49.520Z,98460.84
2023-02-03T11:11:24.722Z,98441.84
2023-02-03T11:14:00.951Z,98449.78
2023-02-03T11:16:27.694Z,98426.22
2023-02-03T11:18:58.227Z,98443.34
2023-02-03T11:21:32.457Z,98423.59
2023-02-03T11:24:18.953Z,98413.59
2023-02-03T11:26:49.751Z,98415.63
2023-02-03T11:29:28.543Z,98412.81
2023-02-03T11:31:57.482Z,98405.44
2023-02-03T11:34:28.817Z,98389.38
2023-02-03T11:36:56.343Z,98376.03
2023-02-03T11:39:26.106Z,98361.38
2023-02-03T11:41:53.472Z,98365.16
2023-02-03T11:44:26.427Z,98369.44
2023-02-03T11:46:58.075Z,98379.84
2023-02-03T11:49:46.080Z,98386.09
2023-02-03T11:52:12.552Z,98361.66
2023-02-03T11:54:47.556Z,98358.09
2023-02-03T11:57:30.753Z,98355.94
2023-02-03T12:00:22.133Z,98349.75
2023-02-03T12:03:30.864Z,98336.38
2023-02-03T12:06:15.337Z,98320.16
2023-02-03T12:08:52.080Z,98326.50
2023-02-03T12:12:01.416Z,98321.84
2023-02-03T12:15:03.016Z,98331.22
2023-02-03T12:17:51.284Z,98318.50
2023-02-03T12:20:26.990Z,98317.34
2023-02-03T12:22:59.730Z,98318.97
2023-02-03T12:25:29.182Z,98311.09
2023-02-03T12:28:32.242Z,98315.06
2023-02-03T12:31:41.046Z,98303.03
2023-02-03T12:34:23.699Z,98299.59
2023-02-03T12:37:01.161Z,98290.38
2023-02-03T12:39:50.685Z,98296.63
2023-02-03T12:42:46.385Z,98266.72
2023-02-03T12:45:27.166Z,98261.66
2023-02-03T12:47:58.796Z,98250.56
2023-02-03T12:50:41.063Z,98256.41
2023-02-03T12:53:20.260Z,98250.13
2023-02-03T12:56:02.926Z,98258.72
2023-02-03T12:58:39.112Z,98246.56
2023-02-03T13:01:23.609Z,98238.50
2023-02-03T13:04:19.046Z,98254.06
2023-02-03T13:07:25.807Z,98241.34
2023-02-03T13:10:03.528Z,98244.84
2023-02-03T13:12:36.680Z,98233.59
2023-02-03T13:15:29.941Z,98220.03
2023-02-03T13:18:15.846Z,98224.66
2023-02-03T13:20:42.489Z,98202.13
2023-02-03T13:23:14.197Z,98214.56
2023-02-03T13:26:06.204Z,98231.69
2023-02-03T13:29:13.735Z,98197.88
2023-02-03T13:32:09.896Z,98197.56
2023-02-03T13:34:43.766Z,98200.59
2023-02-03T13:37:16.429Z,98210.25
2023-02-03T13:40:13.129Z,98191.88
2023-02-03T13:42:52.047Z,98175.19
2023-02-03T13:45:31.103Z,98179.50
2023-02-03T13:48:20.691Z,98185.69
2023-02-03T13:50:49.441Z,98177.19
2023-02-03T13:53:22.428Z,98186.97
2023-02-03T13:56:04.472Z,98188.50
2023-02-03T13:58:34.191Z,98167.63
2023-02-03T14:01:02.652Z,98200.69
2023-02-03T14:03:29.189Z,98179.00
2023-02-03T14:05:57.430Z,98170.50
2023-02-03T14:08:30.079Z,98155.78
2023-02-03T14:11:33.790Z,98153.47
2023-02-03T14:14:09.311Z,98152.00
2023-02-03T14:16:42.748Z,98156.66
2023-02-03T14:19:10.258Z,98153.50
2023-02-03T14:21:49.013Z,98158.56
2023-02-03T14:24:16.775Z,98148.03
2023-02-03T14:26:50.638Z,98141.03
2023-02-03T14:29:29.927Z,98136.75
2023-02-03T14:32:04.072Z,98138.66
2023-02-03T14:34:39.652Z,98156.50
2023-02-03T14:37:14.502Z,98169.03
2023-02-03T14:40:11.451Z,98170.13
2023-02-03T14:43:10.899Z,98145.31
2023-02-03T14:45:44.449Z,98150.38
2023-02-03T14:48:29.928Z,98161.28
2023-02-03T14:51:05.037Z,98170.22
2023-02-03T14:53:47.753Z,98176.06
2023-02-03T14:57:06.898Z,98174.50
2023-02-03T15:00:03.584Z,98191.19
2023-02-03T15:02:31.486Z,98172.88
2023-02-03T15:05:13.522Z,98174.44
2023-02-03T15:07:51.161Z,98165.13
2023-02-03T15:10:44.868Z,98150.28
2023-02-03T15:13:31.105Z,98154.09
2023-02-03T15:16:00.304Z,98162.59
2023-02-03T15:18:40.981Z,98158.72
2023-02-03T15:21:17.153Z,98150.44
2023-02-03T15:23:48.365Z,98156.56
2023-02-03T15:26:20.016Z,98136.59
2023-02-03T15:28:56.600Z,98161.84
2023-02-03T15:31:48.777Z,98191.66
2023-02-03T15:34:23.073Z,98196.69
2023-02-03T15:36:54.322Z,98195.53
2023-02-03T15:39:44.040Z,98185.41
2023-02-03T15:42:33.903Z,98203.25
2023-02-03T15:45:07.681Z,98198.91
2023-02-03T15:47:41.169Z,98196.94
2023-02-03T15:50:21.149Z,98200.06
2023-02-03T15:52:50.064Z,98222.56
2023-02-03T15:55:24.402Z,98214.81
2023-02-03T15:57:51.238Z,98214.06
2023-02-03T16:00:32.229Z,98238.00
2023-02-03T16:03:00.375Z,98231.91
2023-02-03T16:05:33.034Z,98218.56
2023-02-03T16:08:29.716Z,98217.78
2023-02-03T16:10:56.858Z,98222.41
2023-02-03T16:13:26.943Z,98223.19
2023-02-03T16:16:24.808Z,98218.50
2023-02-03T16:18:54.915Z,98233.69
2023-02-03T16:21:43.010Z,98229.25
2023-02-03T16:24:45.740Z,98224.56
2023-02-03T16:27:27.760Z,98240.88
2023-02-03T16:30:33.845Z,98241.56
2023-02-03T16:33:28.930Z,98223.63
2023-02-03T16:36:15.218Z,98219.75
2023-02-03T16:39:07.315Z,98229.78
2023-02-03T16:41:53.208Z,98232.91
2023-02-03T16:44:38.355Z,98209.59
2023-02-03T16:47:40.699Z,98204.91
2023-02-03T16:50:38.156Z,98228.22
2023-02-03T16:53:11.314Z,98235.13
2023-02-03T16:55:37.730Z,98235.22
2023-02-03T16:58:04.333Z,98249.47
2023-02-03T17:00:30.911Z,98242.53
2023-02-03T17:02:58.678Z,98255.78
2023-02-03T17:05:25.339Z,98253.06
2023-02-03T17:07:51.748Z,98250.69
2023-02-03T17:10:18.135Z,98240.63
2023-02-03T17:12:44.714Z,98227.84
2023-02-03T17:15:11.404Z,98227.44
2023-02-03T17:17:38.016Z,98223.56
2023-02-03T17:20:05.250Z,98231.41
2023-02-03T17:22:32.284Z,98223.63
2023-02-03T17:24:58.622Z,98236.06
2023-02-03T17:27:25.228Z,98235.69
2023-02-03T17:29:51.781Z,98241.50
2023-02-03T17:32:18.397Z,98241.06
2023-02-03T17:34:44.799Z,98225.13
2023-02-03T17:37:11.518Z,98228.63
2023-02-03T17:53:20.496Z,98215.88
2023-02-03T17:58:19.501Z,98216.72
2023-02-03T18:00:46.060Z,98223.31
2023-02-03T18:03:12.511Z,98226.84
2023-02-03T18:05:39.473Z,98205.44
2023-02-03T18:08:15.980Z,98179.84
2023-02-03T18:10:43.709Z,98154.91
2023-02-03T18:13:10.583Z,98157.63
2023-02-03T18:15:38.735Z,98214.38
2023-02-03T18:18:05.283Z,98225.28
2023-02-03T18:20:31.778Z,98240.00
2023-02-03T18:22:58.420Z,98226.91
2023-02-03T18:25:25.303Z,98224.59
2023-02-03T18:27:52.402Z,98219.94
2023-02-03T18:30:21.508Z,98225.38
2023-02-03T18:32:51.727Z,98228.84
2023-02-03T18:35:18.968Z,98222.25
2023-02-03T18:37:45.583Z,98230.84
2023-02-03T18:40:12.748Z,98231.66
2023-02-03T18:42:39.356Z,98198.63
2023-02-03T18:45:06.651Z,98169.47
2023-02-03T18:47:33.755Z,98174.91
2023-02-03T18:50:01.080Z,98206.78
2023-02-03T18:52:27.563Z,98215.06
2023-02-03T18:54:54.271Z,98212.44
2023-02-03T18:57:22.764Z,98218.34
2023-02-03T18:59:49.740Z,98226.41
2023-02-03T19:02:16.460Z,98244.41
2023-02-03T19:04:43.619Z,98209.38
2023-02-03T19:07:12.171Z,98199.31
2023-02-03T19:09:40.009Z,98213.34
2023-02-03T19:12:07.846Z,98225.72
2023-02-03T19:14:35.252Z,98216.84
2023-02-03T19:17:03.168Z,98215.72
2023-02-03T19:19:29.825Z,98235.09
2023-02-03T19:21:56.484Z,98214.56
2023-02-03T19:24:25.107Z,98242.91
2023-02-03T19:26:51.767Z,98237.50
2023-02-03T19:29:19.159Z,98256.59
2023-02-03T19:31:45.992Z,98252.31
2023-02-03T19:34:18.943Z,98239.50
2023-02-03T19:36:47.242Z,98252.41
2023-02-03T19:39:14.232Z,98251.25
2023-02-03T19:41:40.901Z,98239.69
2023-02-03T19:44:07.711Z,98236.94
2023-02-03T19:46:39.153Z,98245.63
2023-02-03T19:49:13.451Z,98250.28
2023-02-03T19:51:40.848Z,98254.94
2023-02-03T19:54:07.801Z,98250.31
2023-02-03T19:56:34.414Z,98257.31
2023-02-03T19:59:03.071Z,98255.78
2023-02-03T20:01:29.557Z,98254.72
2023-02-03T20:03:58.571Z,98269.06
2023-02-03T20:06:28.147Z,98267.56
2023-02-03T20:09:00.091Z,98276.94
2023-02-03T20:11:28.124Z,98271.97
2023-02-03T20:13:54.683Z,98273.84
2023-02-03T20:16:21.054Z,98276.19
2023-02-03T20:18:47.820Z,98282.84
2023-02-03T20:21:14.528Z,98286.41
2023-02-03T20:23:41.045Z,98289.94
2023-02-03T20:26:07.677Z,98290.69
2023-02-03T20:28:34.170Z,98284.00
2023-02-03T20:31:02.766Z,98291.88
2023-02-03T20:33:30.506Z,98302.41
2023-02-03T20:35:58.031Z,98312.88
2023-02-03T20:38:24.916Z,98311.31
2023-02-03T20:40:51.547Z,98292.66
2023-02-03T20:43:27.294Z,98298.13
2023-02-03T20:45:54.804Z,98313.38
2023-02-03T20:48:23.942Z,98309.13
2023-02-03T20:50:50.669Z,98281.19
2023-02-03T20:53:22.821Z,98292.09
2023-02-03T20:55:50.770Z,98290.91
2023-02-03T20:58:19.444Z,98279.66
2023-02-03T21:00:49.731Z,98285.09
2023-02-03T21:03:36.699Z,98292.09
2023-02-03T21:06:12.114Z,98287.81
2023-02-03T21:08:39.417Z,98271.84
2023-02-03T21:11:18.804Z,98271.03
2023-02-03T21:13:46.696Z,98285.84
2023-02-03T21:16:18.151Z,98297.47
2023-02-03T21:18:48.828Z,98288.06
2023-02-03T21:21:50.861Z,98283.44
2023-02-03T21:24:25.709Z,98270.63
2023-02-03T21:26:52.801Z,98297.50
2023-02-03T21:29:25.772Z,98277.91
2023-02-03T21:31:53.540Z,98301.25
2023-02-03T21:34:29.394Z,98309.72
2023-02-03T21:36:57.642Z,98324.59
2023-02-03T21:39:31.688Z,98316.31
2023-02-03T21:42:02.873Z,98313.59
2023-02-03T21:44:38.281Z,98318.59
2023-02-03T21:47:11.708Z,98333.84
2023-02-03T21:49:38.155Z,98314.78
2023-02-03T21:52:04.814Z,98319.03
2023-02-03T21:54:34.138Z,98326.38
2023-02-03T21:57:01.607Z,98319.47
2023-02-03T21:59:37.186Z,98317.50
2023-02-03T22:02:24.829Z,98322.16
2023-02-03T22:04:51.237Z,98337.25
2023-02-03T22:07:24.221Z,98335.00
2023-02-03T22:09:51.464Z,98342.72
2023-02-03T22:12:18.056Z,98358.63
2023-02-03T22:14:44.625Z,98366.00
2023-02-03T22:17:14.298Z,98358.56
2023-02-03T22:19:41.014Z,98364.47
2023-02-03T22:22:07.427Z,98375.72
2023-02-03T22:24:33.969Z,98365.22
2023-02-03T22:27:00.679Z,98377.09
2023-02-03T22:29:27.358Z,98369.00
2023-02-03T22:31:54.108Z,98377.94
2023-02-03T22:34:23.434Z,98350.84
2023-02-03T22:36:50.009Z,98353.59
2023-02-03T22:39:16.661Z,98357.47
2023-02-03T22:41:43.208Z,98355.59
2023-02-03T22:44:11.967Z,98353.94
2023-02-03T22:46:38.545Z,98350.06
2023-02-03T22:49:05.149Z,98339.97
2023-02-03T22:51:31.529Z,98329.84
2023-02-03T22:53:57.902Z,98330.97
2023-02-03T22:56:24.329Z,98350.81
2023-02-03T22:58:51.004Z,98350.81
2023-02-03T23:01:17.430Z,98355.47
2023-02-03T23:03:43.912Z,98364.72
2023-02-03T23:06:11.600Z,98346.84
2023-02-03T23:08:38.470Z,98353.84
2023-02-03T23:11:05.218Z,98352.28
2023-02-03T23:13:31.832Z,98364.66
2023-02-03T23:15:58.518Z,98364.66
2023-02-03T23:18:25.163Z,98345.59
2023-02-03T23:20:51.819Z,98359.91
2023-02-03T23:23:18.137Z,98356.78
2023-02-03T23:25:44.497Z,98364.38
2023-02-03T23:28:11.102Z,98363.59
2023-02-03T23:30:37.579Z,98362.44
2023-02-03T23:33:04.345Z,98370.50
2023-02-03T23:35:57.228Z,98383.66
2023-02-03T23:38:23.816Z,98383.53
2023-02-03T23:40:50.168Z,98382.81
2023-02-03T23:43:16.996Z,98383.53
2023-02-03T23:45:43.674Z,98376.53
2023-02-03T23:48:10.159Z,98381.56
2023-02-03T23:50:36.978Z,98389.28
2023-02-03T23:53:03.735Z,98396.28
2023-02-03T23:55:31.258Z,98402.47
2023-02-03T23:57:57.859Z,98391.88
